Time;durP1;ratioP1;P1;durP2;ratioP2;P2;SDS_P1;SDS_P2;PMS_P1;PMS_P2;Temp;Humidity;BMP_temperature;BMP_pressure;BME280_temperature;BME280_humidity;BME280_pressure;Samples;Min_cycle;Max_cycle;Signal;HPM_P1;HPM_P2
2023/01/17 00:02:09;;;;;;;1999.90;999.90;;;6.60;99.90;;;;;;5012406;28;20022;-78
2023/01/17 00:10:14;;;;;;;1999.90;999.90;;;6.50;99.90;;;;;;5012263;28;20475;-78
2023/01/17 00:12:49;;;;;;;1999.90;999.90;;;6.50;99.90;;;;;;5010870;28;20069;-78
2023/01/17 00:15:18;;;;;;;1999.90;999.90;;;6.50;99.90;;;;;;5012371;28;20113;-78
2023/01/17 00:17:44;;;;;;;1999.90;999.90;;;6.50;99.90;;;;;;5012402;28;20014;-78
2023/01/17 01:35:16;;;;;;;1999.90;999.90;;;7.20;99.90;;;;;;5015133;28;20028;-78
2023/01/17 01:37:42;;;;;;;1999.90;999.90;;;7.20;99.90;;;;;;5013794;28;20026;-78
2023/01/17 01:40:09;;;;;;;1999.90;999.90;;;7.30;99.90;;;;;;5014685;28;20484;-79
2023/01/17 01:42:35;;;;;;;1999.90;999.90;;;7.30;99.90;;;;;;5013050;28;20120;-79
2023/01/17 01:45:14;;;;;;;1999.90;999.90;;;7.40;99.90;;;;;;5014894;28;20101;-78
2023/01/17 01:47:40;;;;;;;1999.90;999.90;;;7.40;99.90;;;;;;5013932;28;20044;-78
2023/01/17 01:50:08;;;;;;;1999.90;999.90;;;7.30;99.90;;;;;;5014657;28;20022;-78
2023/01/17 01:52:38;;;;;;;1999.90;999.90;;;7.40;99.90;;;;;;5011883;28;20084;-78
2023/01/17 01:55:17;;;;;;;1999.90;999.90;;;7.30;99.90;;;;;;4995312;28;20069;-78
2023/01/17 01:57:47;;;;;;;1999.90;999.90;;;7.30;99.90;;;;;;5002129;28;20393;-78
2023/01/17 02:00:18;;;;;;;1999.90;999.90;;;7.30;99.90;;;;;;5014593;28;20029;-78
2023/01/17 02:02:46;;;;;;;1999.90;999.90;;;7.20;99.90;;;;;;5014377;28;20050;-78
2023/01/17 02:05:13;;;;;;;1999.90;999.90;;;7.20;99.90;;;;;;5014741;28;20026;-78
2023/01/17 02:07:51;;;;;;;1999.90;999.90;;;7.10;99.90;;;;;;5014446;28;20083;-78
2023/01/17 02:10:16;;;;;;;1999.90;999.90;;;7.10;99.90;;;;;;5013417;28;20493;-78
2023/01/17 02:12:43;;;;;;;1999.90;999.90;;;7.00;99.90;;;;;;5014335;28;20069;-78
2023/01/17 02:15:09;;;;;;;1999.90;999.90;;;7.00;99.90;;;;;;5014371;28;20370;-78
2023/01/17 02:17:56;;;;;;;1999.90;999.90;;;6.90;99.90;;;;;;5014468;28;20026;-78
2023/01/17 02:21:04;;;;;;;1999.90;999.90;;;6.90;99.90;;;;;;5012356;28;20111;-78
2023/01/17 02:23:49;;;;;;;1999.90;999.90;;;6.80;99.90;;;;;;5012814;28;20072;-78
2023/01/17 02:26:52;;;;;;;1999.90;999.90;;;6.80;99.90;;;;;;5013945;28;20041;-78
2023/01/17 02:30:00;;;;;;;1999.90;999.90;;;6.70;99.90;;;;;;5012464;28;20038;-78
2023/01/17 02:32:47;;;;;;;1999.90;999.90;;;6.70;99.90;;;;;;5029227;28;20150;-78
2023/01/17 02:35:32;;;;;;;1999.90;999.90;;;6.70;99.90;;;;;;5014110;28;20018;-78
2023/01/17 02:38:02;;;;;;;1999.90;999.90;;;6.60;99.90;;;;;;5013111;28;20045;-78
2023/01/17 02:40:37;;;;;;;1999.90;999.90;;;6.60;99.90;;;;;;5013662;28;20556;-78
2023/01/17 02:43:08;;;;;;;1999.90;999.90;;;6.60;99.90;;;;;;5013421;28;20025;-78
2023/01/17 02:45:33;;;;;;;1999.90;999.90;;;6.60;99.90;;;;;;5013756;28;20026;-78
2023/01/17 02:47:59;;;;;;;1999.90;999.90;;;6.60;99.90;;;;;;5013003;28;20037;-78
2023/01/17 02:50:36;;;;;;;1999.90;999.90;;;6.60;99.90;;;;;;5013154;28;20034;-78
2023/01/17 02:53:19;;;;;;;1999.90;999.90;;;6.60;99.90;;;;;;5008633;28;20026;-78
2023/01/17 02:56:08;;;;;;;1999.90;999.90;;;6.60;99.90;;;;;;4993940;28;20018;-78
2023/01/17 02:58:37;;;;;;;1999.90;999.90;;;6.60;99.90;;;;;;5008036;28;20022;-79
2023/01/17 03:01:11;;;;;;;1999.90;999.90;;;6.50;99.90;;;;;;5013422;28;20034;-78
2023/01/17 03:04:13;;;;;;;1999.90;999.90;;;6.60;99.90;;;;;;5013462;28;20509;-78
2023/01/17 03:06:56;;;;;;;1999.90;999.90;;;6.60;99.90;;;;;;5011494;28;20557;-78
2023/01/17 03:09:23;;;;;;;;;;;6.50;99.90;;;;;;5013483;28;20029;-78
2023/01/17 03:11:49;;;;;;;1999.90;999.90;;;6.60;99.90;;;;;;5013327;28;19920;-78
2023/01/17 03:14:14;;;;;;;1999.90;999.90;;;6.60;99.90;;;;;;5011508;28;20026;-78
2023/01/17 03:16:40;;;;;;;1999.90;999.90;;;6.60;99.90;;;;;;5013228;28;20030;-78
2023/01/17 03:19:08;;;;;;;1999.90;999.90;;;6.60;99.90;;;;;;5013400;28;20041;-78
2023/01/17 03:21:34;;;;;;;1999.90;999.90;;;6.70;99.90;;;;;;5012579;28;20044;-78
2023/01/17 03:24:00;;;;;;;1999.90;999.90;;;6.70;99.90;;;;;;5012885;28;20030;-78
2023/01/17 03:26:25;;;;;;;1999.90;999.90;;;6.70;99.90;;;;;;5012550;28;20144;-78
2023/01/17 03:28:51;;;;;;;1999.90;999.90;;;6.80;99.90;;;;;;5012903;28;20105;-78
2023/01/17 03:31:18;;;;;;;1999.90;999.90;;;6.80;99.90;;;;;;5011369;28;20424;-78
2023/01/17 03:33:54;;;;;;;1999.90;999.90;;;6.80;99.90;;;;;;5012787;28;20017;-78
2023/01/17 03:36:20;;;;;;;1999.90;999.90;;;6.80;99.90;;;;;;5012938;28;20026;-78
2023/01/17 03:38:46;;;;;;;1999.90;999.90;;;6.80;99.90;;;;;;5012863;28;20039;-78
2023/01/17 03:41:11;;;;;;;1999.90;999.90;;;6.80;99.90;;;;;;5011706;28;20058;-78
2023/01/17 03:43:37;;;;;;;1999.90;999.90;;;6.70;99.90;;;;;;5012460;28;20033;-78
2023/01/17 03:46:16;;;;;;;1999.90;999.90;;;6.70;99.90;;;;;;5011532;28;20029;-78
2023/01/17 03:48:42;;;;;;;1999.90;999.90;;;6.70;99.90;;;;;;5011793;28;20038;-78
2023/01/17 03:51:07;;;;;;;1999.90;999.90;;;6.70;99.90;;;;;;5011028;28;20033;-77
2023/01/17 03:53:33;;;;;;;1999.90;999.90;;;6.70;99.90;;;;;;5002188;28;20118;-77
2023/01/17 03:55:59;;;;;;;1999.90;999.90;;;6.70;99.90;;;;;;4991614;28;20037;-77
2023/01/17 03:58:25;;;;;;;1999.90;999.90;;;6.70;99.90;;;;;;4992652;28;20027;-77
2023/01/17 04:00:50;;;;;;;1999.90;999.90;;;6.60;99.90;;;;;;4993006;28;20030;-77
2023/01/17 04:03:16;;;;;;;1999.90;999.90;;;6.60;99.90;;;;;;4992951;28;20026;-77
2023/01/17 04:05:41;;;;;;;1999.90;999.90;;;6.60;99.90;;;;;;4992653;28;20034;-77
2023/01/17 04:08:07;;;;;;;1999.90;999.90;;;6.50;99.90;;;;;;4992609;28;20042;-77
2023/01/17 04:10:33;;;;;;;1999.90;999.90;;;6.40;99.90;;;;;;4991262;28;20030;-77
2023/01/17 04:12:58;;;;;;;1999.90;999.90;;;6.40;99.90;;;;;;4992511;28;20026;-77
2023/01/17 04:15:24;;;;;;;1999.90;999.90;;;6.40;99.90;;;;;;4992765;28;20096;-77
2023/01/17 04:17:50;;;;;;;1999.90;999.90;;;6.40;99.90;;;;;;4990556;28;20367;-77
2023/01/17 04:20:24;;;;;;;1999.90;999.90;;;6.30;99.90;;;;;;4993588;28;20038;-77
2023/01/17 04:22:49;;;;;;;1999.90;999.90;;;6.30;99.90;;;;;;5012105;28;20460;-77
2023/01/17 04:25:15;;;;;;;1999.90;999.90;;;6.20;99.90;;;;;;5012232;28;20126;-77
2023/01/17 04:27:41;;;;;;;1999.90;999.90;;;6.20;99.90;;;;;;5011607;28;20034;-77
2023/01/17 04:30:07;;;;;;;1999.90;999.90;;;6.20;99.90;;;;;;5011944;28;20033;-77
2023/01/17 04:32:32;;;;;;;1999.90;999.90;;;6.20;99.90;;;;;;5011868;28;20050;-77
2023/01/17 04:34:58;;;;;;;1999.90;999.90;;;6.20;99.90;;;;;;5011879;28;20116;-77
2023/01/17 04:37:24;;;;;;;1999.90;999.90;;;6.20;99.90;;;;;;5012354;28;20117;-77
2023/01/17 04:39:49;;;;;;;1999.90;999.90;;;6.20;99.90;;;;;;5012118;28;20121;-78
2023/01/17 04:42:15;;;;;;;1999.90;999.90;;;6.10;99.90;;;;;;5011496;28;20041;-78
2023/01/17 04:44:40;;;;;;;1999.90;999.90;;;6.20;99.90;;;;;;5011878;28;20053;-77
2023/01/17 04:47:06;;;;;;;1999.90;999.90;;;6.20;99.90;;;;;;5011065;28;20065;-78
2023/01/17 04:49:32;;;;;;;1999.90;999.90;;;6.20;99.90;;;;;;5011850;28;20045;-77
2023/01/17 04:51:58;;;;;;;1999.90;999.90;;;6.10;99.90;;;;;;5012181;28;20026;-77
2023/01/17 04:54:23;;;;;;;1999.90;999.90;;;6.00;99.90;;;;;;5013391;28;20113;-77
2023/01/17 04:56:49;;;;;;;1999.90;999.90;;;6.00;99.90;;;;;;5015537;28;20101;-77
2023/01/17 04:59:15;;;;;;;1999.90;999.90;;;6.00;99.90;;;;;;5014579;28;20428;-77
2023/01/17 05:01:41;;;;;;;1999.90;999.90;;;6.00;99.90;;;;;;5014480;28;20397;-77
2023/01/17 05:04:07;;;;;;;1999.90;999.90;;;6.00;99.90;;;;;;5014117;28;20033;-77
2023/01/17 05:06:32;;;;;;;1999.90;999.90;;;6.00;99.90;;;;;;5015524;28;20018;-77
2023/01/17 05:08:58;;;;;;;1999.90;999.90;;;6.00;99.90;;;;;;5015239;28;20058;-77
2023/01/17 05:11:24;;;;;;;1999.90;999.90;;;6.00;99.90;;;;;;5015330;28;20374;-77
2023/01/17 05:13:49;;;;;;;1999.90;999.90;;;6.00;99.90;;;;;;5013930;28;20034;-77
2023/01/17 05:16:18;;;;;;;1999.90;999.90;;;6.00;99.90;;;;;;5014068;28;20029;-77
2023/01/17 05:18:43;;;;;;;1999.90;999.90;;;6.00;99.90;;;;;;5015206;28;20030;-77
2023/01/17 05:21:09;;;;;;;1999.90;999.90;;;6.10;99.90;;;;;;5015044;28;20038;-77
2023/01/17 05:23:35;;;;;;;1999.90;999.90;;;6.10;99.90;;;;;;5015267;28;20068;-77
2023/01/17 05:26:00;;;;;;;1999.90;999.90;;;6.10;99.90;;;;;;5014397;28;20114;-77
2023/01/17 05:28:26;;;;;;;1999.90;999.90;;;6.20;99.90;;;;;;5013309;28;20403;-77
2023/01/17 05:30:52;;;;;;;1999.90;999.90;;;6.10;99.90;;;;;;5013707;28;20097;-77
2023/01/17 05:33:17;;;;;;;1999.90;999.90;;;6.10;99.90;;;;;;5014968;28;20041;-77
2023/01/17 05:35:43;;;;;;;1999.90;999.90;;;6.10;99.90;;;;;;5015162;28;20029;-77
2023/01/17 05:38:08;;;;;;;1999.90;999.90;;;6.20;99.90;;;;;;5015029;28;20378;-77
2023/01/17 05:40:34;;;;;;;1999.90;999.90;;;6.10;99.90;;;;;;5014573;28;20485;-78
2023/01/17 05:43:02;;;;;;;1999.90;999.90;;;6.20;99.90;;;;;;5014701;28;20034;-78
2023/01/17 05:45:30;;;;;;;1999.90;999.90;;;6.30;99.90;;;;;;5013642;28;20030;-78
2023/01/17 05:47:57;;;;;;;1999.90;999.90;;;6.30;99.90;;;;;;5014018;28;20072;-78
2023/01/17 05:50:31;;;;;;;1999.90;999.90;;;6.40;99.90;;;;;;5014491;28;20018;-78
2023/01/17 05:53:00;;;;;;;1999.90;999.90;;;6.50;99.90;;;;;;5010322;28;20034;-78
2023/01/17 05:55:27;;;;;;;1999.90;999.90;;;6.50;99.90;;;;;;4999879;28;20017;-78
2023/01/17 05:57:53;;;;;;;1999.90;999.90;;;6.50;99.90;;;;;;5014300;28;20025;-77
2023/01/17 06:00:19;;;;;;;1999.90;999.90;;;6.40;99.90;;;;;;5014504;28;20109;-78
2023/01/17 06:02:46;;;;;;;1999.90;999.90;;;6.50;99.90;;;;;;5014110;28;20533;-77
2023/01/17 06:05:12;;;;;;;1999.90;999.90;;;6.40;99.90;;;;;;5013946;28;20511;-78
2023/01/17 06:07:38;;;;;;;1999.90;999.90;;;6.40;99.90;;;;;;5014449;28;20026;-78
2023/01/17 06:10:04;;;;;;;1999.90;999.90;;;6.40;99.90;;;;;;5014130;28;20097;-78
2023/01/17 06:12:31;;;;;;;1999.90;999.90;;;6.40;99.90;;;;;;5014146;28;20073;-78
2023/01/17 06:14:56;;;;;;;1999.90;999.90;;;6.40;99.90;;;;;;5014358;28;20061;-78
2023/01/17 06:17:22;;;;;;;1999.90;999.90;;;6.40;99.90;;;;;;5014246;28;20049;-78
2023/01/17 06:19:47;;;;;;;1999.90;999.90;;;6.40;99.90;;;;;;5013930;28;20558;-78
2023/01/17 06:22:13;;;;;;;1999.90;999.90;;;6.30;99.90;;;;;;5013824;28;20401;-78
2023/01/17 06:24:39;;;;;;;1999.90;999.90;;;6.40;99.90;;;;;;5013776;28;20034;-78
2023/01/17 06:27:07;;;;;;;1999.90;999.90;;;6.40;99.90;;;;;;5012575;28;20065;-78
2023/01/17 06:29:32;;;;;;;1999.90;999.90;;;6.40;99.90;;;;;;5013897;28;20041;-78
2023/01/17 06:31:58;;;;;;;1999.90;999.90;;;6.40;99.90;;;;;;5013655;28;20397;-78
2023/01/17 06:34:23;;;;;;;1999.90;999.90;;;6.30;99.90;;;;;;5012715;28;20158;-78
2023/01/17 06:36:49;;;;;;;1999.90;999.90;;;6.30;99.90;;;;;;5011868;28;20465;-78
2023/01/17 06:39:15;;;;;;;1999.90;999.90;;;6.30;99.90;;;;;;5009184;28;20022;-78
2023/01/17 06:41:41;;;;;;;1999.90;999.90;;;6.20;99.90;;;;;;5030925;28;20033;-78
2023/01/17 06:44:08;;;;;;;1999.90;999.90;;;6.20;99.90;;;;;;5017229;28;20022;-78
2023/01/17 06:46:34;;;;;;;1999.90;999.90;;;6.20;99.90;;;;;;5013035;28;20077;-78
2023/01/17 06:48:59;;;;;;;1999.90;999.90;;;6.30;99.90;;;;;;5019662;28;20511;-78
2023/01/17 06:51:25;;;;;;;1999.90;999.90;;;6.30;99.90;;;;;;5012842;28;20044;-81
2023/01/17 06:53:50;;;;;;;1999.90;999.90;;;6.30;99.90;;;;;;5009414;28;20058;-78
2023/01/17 06:56:16;;;;;;;1999.90;999.90;;;6.30;99.90;;;;;;5021744;28;20030;-78
2023/01/17 06:58:41;;;;;;;1999.90;999.90;;;6.30;99.90;;;;;;5012192;28;20034;-78
2023/01/17 07:01:09;;;;;;;1999.90;999.90;;;6.40;99.90;;;;;;5012227;28;20408;-78
2023/01/17 07:03:35;;;;;;;1999.90;999.90;;;6.50;99.90;;;;;;5011121;28;20131;-78
2023/01/17 07:06:01;;;;;;;1999.90;999.90;;;6.50;99.90;;;;;;5009199;28;20504;-78
2023/01/17 07:08:27;;;;;;;1999.90;999.90;;;6.60;99.90;;;;;;5009919;28;20026;-78
2023/01/17 07:10:59;;;;;;;1999.90;999.90;;;6.70;99.90;;;;;;5008539;28;20049;-79
2023/01/17 07:13:26;;;;;;;1999.90;999.90;;;6.90;99.90;;;;;;5010382;28;20461;-78
2023/01/17 07:15:52;;;;;;;1999.90;999.90;;;7.00;99.90;;;;;;5011278;28;20386;-79
2023/01/17 07:18:21;;;;;;;1999.90;999.90;;;7.00;99.90;;;;;;5016324;28;20040;-78
2023/01/17 07:20:48;;;;;;;1999.90;999.90;;;7.00;99.90;;;;;;5013208;28;20038;-79
2023/01/17 07:23:14;;;;;;;1999.90;999.90;;;6.90;99.90;;;;;;5007606;28;20390;-78
2023/01/17 07:25:40;;;;;;;1999.90;999.90;;;7.00;99.90;;;;;;5006820;28;20127;-78
2023/01/17 07:28:05;;;;;;;1999.90;999.90;;;7.00;99.90;;;;;;5018784;28;20057;-78
2023/01/17 07:30:31;;;;;;;1999.90;999.90;;;6.70;99.90;;;;;;5012820;28;20116;-79
2023/01/17 07:32:57;;;;;;;1999.90;999.90;;;6.40;99.90;;;;;;5016264;28;20457;-79
2023/01/17 07:35:26;;;;;;;1999.90;999.90;;;6.20;99.90;;;;;;5010351;28;20021;-79
2023/01/17 07:37:53;;;;;;;1999.90;999.90;;;6.10;99.90;;;;;;5007617;28;20034;-79
2023/01/17 07:40:20;;;;;;;1999.90;999.90;;;6.10;99.90;;;;;;5010443;28;20037;-79
2023/01/17 07:42:46;;;;;;;1999.90;999.90;;;6.10;99.90;;;;;;5009373;28;20675;-78
2023/01/17 07:45:13;;;;;;;1999.90;999.90;;;6.20;99.90;;;;;;5010461;28;20149;-79
2023/01/17 07:47:39;;;;;;;1999.90;999.90;;;6.20;99.90;;;;;;5019798;28;20119;-79
2023/01/17 07:50:06;;;;;;;1999.90;999.90;;;6.20;99.90;;;;;;5014782;28;20032;-79
2023/01/17 07:52:31;;;;;;;1999.90;999.90;;;6.30;99.90;;;;;;5007721;28;20053;-79
2023/01/17 07:54:57;;;;;;;1999.90;999.90;;;6.30;99.90;;;;;;5007466;28;20378;-80
2023/01/17 07:57:23;;;;;;;1999.90;999.90;;;6.20;99.90;;;;;;5008621;28;20037;-80
2023/01/17 07:59:51;;;;;;;1999.90;999.90;;;6.30;99.90;;;;;;5008184;28;20056;-79
2023/01/17 08:02:21;;;;;;;1999.90;999.90;;;6.40;99.90;;;;;;5014091;28;20200;-80
2023/01/17 08:04:47;;;;;;;1999.90;999.90;;;6.40;99.90;;;;;;5008348;28;20385;-77
2023/01/17 08:07:13;;;;;;;1999.90;999.90;;;6.50;99.90;;;;;;5007704;28;20036;-77
2023/01/17 08:09:43;;;;;;;1999.90;999.90;;;6.60;99.90;;;;;;5008881;28;20033;-78
2023/01/17 08:12:09;;;;;;;1999.90;999.90;;;6.60;99.90;;;;;;5007093;28;20025;-75
2023/01/17 08:14:35;;;;;;;1999.90;999.90;;;6.70;99.90;;;;;;5001372;28;20030;-78
2023/01/17 08:17:12;;;;;;;1999.90;999.90;;;6.70;99.90;;;;;;5009423;28;20034;-79
2023/01/17 08:19:37;;;;;;;1999.90;999.90;;;6.70;99.90;;;;;;5006814;28;20033;-79
2023/01/17 08:22:03;;;;;;;1999.90;999.90;;;6.70;99.90;;;;;;5006336;28;20096;-78
2023/01/17 08:24:29;;;;;;;1999.90;999.90;;;6.80;99.90;;;;;;5009225;28;20092;-78
2023/01/17 08:26:55;;;;;;;1999.90;999.90;;;6.70;99.90;;;;;;5010498;28;20044;-78
2023/01/17 08:29:22;;;;;;;1999.90;999.90;;;6.80;99.90;;;;;;5011046;28;20105;-76
2023/01/17 08:31:47;;;;;;;1999.90;999.90;;;6.80;99.90;;;;;;5012912;28;20033;-76
2023/01/17 08:34:13;;;;;;;1999.90;999.90;;;6.90;99.90;;;;;;5012301;28;20095;-78
2023/01/17 08:36:41;;;;;;;1999.90;999.90;;;7.00;99.90;;;;;;5009919;28;20034;-78
2023/01/17 08:39:07;;;;;;;1999.90;999.90;;;7.00;99.90;;;;;;5010924;28;20125;-78
2023/01/17 08:41:33;;;;;;;1999.90;999.90;;;7.00;99.90;;;;;;5007501;28;20037;-78
2023/01/17 08:43:58;;;;;;;1999.90;999.90;;;7.10;99.90;;;;;;5013349;28;20028;-78
2023/01/17 08:46:24;;;;;;;1999.90;999.90;;;7.10;99.90;;;;;;5012541;28;20470;-79
2023/01/17 08:48:54;;;;;;;1999.90;999.90;;;7.10;99.90;;;;;;5012520;28;20071;-79
2023/01/17 08:51:23;;;;;;;1999.90;999.90;;;7.10;99.90;;;;;;5010376;28;20034;-81
2023/01/17 08:53:49;;;;;;;1999.90;999.90;;;7.10;99.90;;;;;;5008141;28;20096;-80
2023/01/17 08:56:14;;;;;;;1999.90;999.90;;;7.20;99.90;;;;;;5012149;28;20046;-79
2023/01/17 08:58:40;;;;;;;1999.90;999.90;;;7.20;99.90;;;;;;5011542;28;20022;-76
2023/01/17 09:01:06;;;;;;;1999.90;999.90;;;7.20;99.90;;;;;;5013118;28;20030;-77
2023/01/17 09:03:32;;;;;;;1999.90;999.90;;;7.30;99.90;;;;;;5014898;28;20051;-76
2023/01/17 09:06:05;;;;;;;1999.90;999.90;;;7.40;99.90;;;;;;5006787;28;20081;-76
2023/01/17 09:08:32;;;;;;;1999.90;999.90;;;7.50;99.90;;;;;;5011141;28;20061;-76
2023/01/17 09:10:57;;;;;;;1999.90;999.90;;;7.60;99.90;;;;;;5016112;28;20030;-75
2023/01/17 09:13:23;;;;;;;1999.90;999.90;;;7.60;99.90;;;;;;5006742;28;20037;-76
2023/01/17 09:15:49;;;;;;;1999.90;999.90;;;7.50;99.90;;;;;;5011843;28;20397;-76
2023/01/17 09:18:14;;;;;;;1999.90;999.90;;;7.40;99.90;;;;;;5016863;28;20018;-75
2023/01/17 09:20:40;;;;;;;1999.90;999.90;;;7.40;99.90;;;;;;5018379;28;20038;-76
2023/01/17 09:23:05;;;;;;;1999.90;999.90;;;7.40;99.90;;;;;;5015388;28;20026;-76
2023/01/17 09:25:31;;;;;;;1999.90;999.90;;;7.30;99.90;;;;;;5023233;28;20046;-76
2023/01/17 09:27:57;;;;;;;1999.90;999.90;;;7.30;99.90;;;;;;5014740;28;20034;-77
2023/01/17 09:30:22;;;;;;;1999.90;999.90;;;7.30;99.90;;;;;;5010331;28;20120;-76
2023/01/17 09:32:54;;;;;;;1999.90;999.90;;;7.20;99.90;;;;;;5012107;28;20112;-77
2023/01/17 09:35:20;;;;;;;1999.90;999.90;;;7.30;99.90;;;;;;5014852;28;20480;-76
2023/01/17 09:37:50;;;;;;;1999.90;999.90;;;7.20;99.90;;;;;;5031499;28;20034;-78
2023/01/17 09:40:22;;;;;;;1999.90;999.90;;;7.20;99.90;;;;;;5014358;28;20116;-78
2023/01/17 09:42:53;;;;;;;1999.90;999.90;;;7.20;99.90;;;;;;5017726;28;20060;-77
2023/01/17 09:45:20;;;;;;;1999.90;999.90;;;7.10;99.90;;;;;;5011974;28;20068;-77
2023/01/17 09:47:52;;;;;;;1999.90;999.90;;;7.10;99.90;;;;;;5011924;28;20022;-77
2023/01/17 09:50:40;;;;;;;1999.90;999.90;;;7.00;99.90;;;;;;5007863;28;20806;-79
2023/01/17 09:53:13;;;;;;;1999.90;999.90;;;6.90;99.90;;;;;;5010201;28;20149;-80
2023/01/17 09:56:04;;;;;;;1999.90;999.90;;;6.90;99.90;;;;;;5009378;28;20852;-78
2023/01/17 09:59:07;;;;;;;1999.90;999.90;;;6.80;99.90;;;;;;5008834;28;20088;-76
2023/01/17 10:01:35;;;;;;;1999.90;999.90;;;6.70;99.90;;;;;;4974450;28;20034;-79
2023/01/17 10:04:17;;;;;;;1999.90;999.90;;;6.70;99.90;;;;;;5009122;28;20033;-80
2023/01/17 10:06:57;;;;;;;1999.90;999.90;;;6.70;99.90;;;;;;5012416;28;20036;-79
2023/01/17 10:09:41;;;;;;;1999.90;999.90;;;6.50;99.90;;;;;;5011418;28;20052;-81
2023/01/17 10:12:20;;;;;;;1999.90;999.90;;;6.20;99.90;;;;;;5008702;28;20373;-79
2023/01/17 10:15:23;;;;;;;1999.90;999.90;;;5.90;99.90;;;;;;5006635;28;20109;-80
2023/01/17 10:18:09;;;;;;;1999.90;999.90;;;5.60;99.90;;;;;;5012749;28;20389;-81
2023/01/17 10:21:13;;;;;;;1999.90;999.90;;;5.30;99.90;;;;;;5008641;28;20404;-80
2023/01/17 10:23:55;;;;;;;1999.90;999.90;;;5.30;99.90;;;;;;5006885;28;20030;-81
2023/01/17 10:26:23;;;;;;;1999.90;999.90;;;5.40;99.90;;;;;;5011114;28;20032;-80
2023/01/17 10:28:51;;;;;;;1999.90;999.90;;;5.50;99.90;;;;;;5011425;28;20094;-80
2023/01/17 10:31:29;;;;;;;1999.90;999.90;;;5.80;99.90;;;;;;5020191;28;20041;-79
2023/01/17 10:34:21;;;;;;;1999.90;999.90;;;6.00;99.90;;;;;;5013508;28;20050;-78
2023/01/17 10:36:59;;;;;;;1999.90;999.90;;;6.30;99.90;;;;;;5009158;28;20041;-79
2023/01/17 10:39:29;;;;;;;1999.90;999.90;;;6.50;99.90;;;;;;5008343;28;20053;-76
2023/01/17 10:42:00;;;;;;;1999.90;999.90;;;6.60;99.90;;;;;;5010443;28;20493;-78
2023/01/17 10:44:39;;;;;;;1999.90;999.90;;;6.70;99.90;;;;;;5010553;28;20033;-79
2023/01/17 10:47:11;;;;;;;1999.90;999.90;;;6.80;99.90;;;;;;5010903;28;20033;-80
2023/01/17 10:49:39;;;;;;;1999.90;999.90;;;6.70;99.90;;;;;;5009440;28;20030;-79
2023/01/17 10:52:15;;;;;;;1999.90;999.90;;;6.80;99.90;;;;;;5008937;28;20022;-79
2023/01/17 10:55:05;;;;;;;1999.90;999.90;;;6.70;99.90;;;;;;5011290;28;20025;-79
2023/01/17 10:57:39;;;;;;;1999.90;999.90;;;6.50;99.90;;;;;;4996513;28;20109;-79
2023/01/17 11:00:19;;;;;;;1999.90;999.90;;;6.60;99.90;;;;;;5013684;28;20029;-80
2023/01/17 11:02:49;;;;;;;1999.90;999.90;;;6.50;99.90;;;;;;5006265;28;20041;-79
2023/01/17 11:05:29;;;;;;;1999.90;999.90;;;6.40;99.90;;;;;;5023620;28;20827;-77
2023/01/17 11:08:07;;;;;;;1999.90;999.90;;;6.40;99.90;;;;;;5003934;28;20025;-79
2023/01/17 11:10:48;;;;;;;1999.90;999.90;;;6.50;99.90;;;;;;5008640;28;20040;-75
2023/01/17 11:13:19;;;;;;;1999.90;999.90;;;6.50;99.90;;;;;;5006298;28;20101;-78
2023/01/17 11:15:48;;;;;;;1999.90;999.90;;;6.50;99.90;;;;;;5007617;28;20036;-76
2023/01/17 11:18:17;;;;;;;1999.90;999.90;;;6.60;99.90;;;;;;5004450;28;20092;-76
2023/01/17 11:20:43;;;;;;;1999.90;999.90;;;6.70;99.90;;;;;;4998887;28;20050;-79
2023/01/17 11:23:32;;;;;;;1999.90;999.90;;;6.80;99.90;;;;;;4994722;28;20797;-76
2023/01/17 11:26:04;;;;;;;1999.90;999.90;;;6.80;99.90;;;;;;5009379;28;20034;-77
2023/01/17 11:28:38;;;;;;;1999.90;999.90;;;6.70;99.90;;;;;;4999176;28;20022;-79
2023/01/17 11:31:08;;;;;;;1999.90;999.90;;;6.60;99.90;;;;;;5005380;28;20448;-78
2023/01/17 11:33:47;;;;;;;1999.90;999.90;;;6.50;99.90;;;;;;5001684;28;20029;-78
2023/01/17 11:36:26;;;;;;;1999.90;999.90;;;6.50;99.90;;;;;;4993824;28;20419;-77
2023/01/17 11:39:02;;;;;;;1999.90;999.90;;;6.40;99.90;;;;;;5005912;28;20565;-79
2023/01/17 11:41:32;;;;;;;1999.90;999.90;;;6.30;99.90;;;;;;4998426;28;20030;-79
2023/01/17 11:43:59;;;;;;;1999.90;999.90;;;6.20;99.90;;;;;;4999088;28;20034;-77
2023/01/17 11:46:29;;;;;;;1999.90;999.90;;;6.00;99.90;;;;;;4998642;28;20030;-78
2023/01/17 11:48:59;;;;;;;1999.90;999.90;;;5.70;99.90;;;;;;4997338;28;20374;-76
2023/01/17 11:51:28;;;;;;;1999.90;999.90;;;5.50;99.90;;;;;;5001427;28;20033;-75
2023/01/17 11:54:10;;;;;;;1999.90;999.90;;;5.30;99.90;;;;;;5002015;28;20493;-76
2023/01/17 11:56:36;;;;;;;1999.90;999.90;;;5.20;99.90;;;;;;4997667;28;20117;-76
2023/01/17 11:59:17;;;;;;;1999.90;999.90;;;5.00;99.90;;;;;;5004244;28;20032;-77
2023/01/17 12:02:00;;;;;;;1999.90;999.90;;;5.20;99.90;;;;;;4993509;28;20121;-76
2023/01/17 12:04:41;;;;;;;1999.90;999.90;;;5.30;99.90;;;;;;5003712;28;20543;-76
2023/01/17 12:07:46;;;;;;;1999.90;999.90;;;5.50;99.90;;;;;;5011994;28;20034;-77
2023/01/17 12:10:25;;;;;;;1999.90;999.90;;;5.70;99.90;;;;;;5005813;28;20053;-75
2023/01/17 12:16:31;;;;;;;1999.90;999.90;;;6.10;99.90;;;;;;5007927;28;20052;-76
2023/01/17 12:19:12;;;;;;;1999.90;999.90;;;6.30;99.90;;;;;;5005704;28;20402;-76
2023/01/17 12:22:05;;;;;;;1999.90;999.90;;;6.20;99.90;;;;;;5005995;28;20125;-77
2023/01/17 12:24:40;;;;;;;;;;;6.10;99.90;;;;;;5007211;28;20116;-76
2023/01/17 12:27:26;;;;;;;1999.90;999.90;;;6.30;99.90;;;;;;5007404;28;19956;-76
2023/01/17 12:30:25;;;;;;;1999.90;999.90;;;6.10;99.90;;;;;;4978656;28;20472;-75
2023/01/17 12:33:05;;;;;;;1999.90;999.90;;;6.10;99.90;;;;;;5008789;28;20571;-75
2023/01/17 12:35:37;;;;;;;1999.90;999.90;;;6.10;99.90;;;;;;5003617;28;20026;-75
2023/01/17 12:38:18;;;;;;;1999.90;999.90;;;6.00;99.90;;;;;;5009959;28;20032;-77
2023/01/17 12:41:25;;;;;;;1999.90;999.90;;;6.20;99.90;;;;;;5005699;28;20030;-75
2023/01/17 12:43:55;;;;;;;1999.90;999.90;;;6.30;99.90;;;;;;5015015;28;20025;-75
2023/01/17 12:46:30;;;;;;;1999.90;999.90;;;6.30;99.90;;;;;;5011801;28;20059;-75
2023/01/17 12:49:37;;;;;;;1999.90;999.90;;;6.20;99.90;;;;;;5009185;28;20034;-76
2023/01/17 12:52:36;;;;;;;1999.90;999.90;;;6.30;99.90;;;;;;5011450;28;20053;-76
2023/01/17 12:55:09;;;;;;;1999.90;999.90;;;6.20;99.90;;;;;;5006982;28;20061;-77
2023/01/17 12:57:41;;;;;;;1999.90;999.90;;;6.10;99.90;;;;;;5007137;28;20030;-80
2023/01/17 13:00:18;;;;;;;1999.90;999.90;;;6.10;99.90;;;;;;5006702;28;20033;-79
2023/01/17 13:03:07;;;;;;;1999.90;999.90;;;6.10;99.90;;;;;;5008479;28;20022;-80
2023/01/17 13:05:40;;;;;;;1999.90;999.90;;;6.10;99.90;;;;;;5018219;28;20030;-79
2023/01/17 13:08:24;;;;;;;1999.90;999.90;;;6.10;99.90;;;;;;5010594;28;20038;-80
2023/01/17 13:11:02;;;;;;;1999.90;999.90;;;6.20;99.90;;;;;;5009238;28;20030;-80
2023/01/17 13:13:30;;;;;;;1999.90;999.90;;;6.10;99.90;;;;;;5006685;28;20573;-80
2023/01/17 13:16:13;;;;;;;1999.90;999.90;;;6.10;99.90;;;;;;5009994;28;20024;-80
2023/01/17 13:18:45;;;;;;;1999.90;999.90;;;6.00;99.90;;;;;;5009981;28;20030;-80
2023/01/17 13:21:22;;;;;;;1999.90;999.90;;;6.00;99.90;;;;;;5006556;28;20049;-83
2023/01/17 13:24:04;;;;;;;1999.90;999.90;;;6.00;99.90;;;;;;5011810;28;20236;-79
2023/01/17 13:26:54;;;;;;;1999.90;999.90;;;6.00;99.90;;;;;;5020393;28;20072;-79
2023/01/17 13:29:42;;;;;;;1999.90;999.90;;;6.10;99.90;;;;;;5008179;28;20040;-81
2023/01/17 13:32:23;;;;;;;1999.90;999.90;;;6.10;99.90;;;;;;5011579;28;20062;-82
2023/01/17 13:35:03;;;;;;;1999.90;999.90;;;6.10;99.90;;;;;;5003069;28;20065;-84
2023/01/17 13:37:56;;;;;;;1999.90;999.90;;;6.00;99.90;;;;;;5011411;28;20034;-84
2023/01/17 13:40:28;;;;;;;1999.90;999.90;;;5.90;99.90;;;;;;5014517;28;20025;-82
2023/01/17 13:42:58;;;;;;;1999.90;999.90;;;5.90;99.90;;;;;;5010547;28;20076;-81
2023/01/17 13:45:34;;;;;;;1999.90;999.90;;;5.90;99.90;;;;;;5006653;28;20060;-80
2023/01/17 13:48:13;;;;;;;1999.90;999.90;;;5.90;99.90;;;;;;5010501;28;20030;-82
2023/01/17 13:50:55;;;;;;;1999.90;999.90;;;5.90;99.90;;;;;;5008460;28;20034;-82
2023/01/17 13:53:32;;;;;;;1999.90;999.90;;;6.00;99.90;;;;;;5009814;28;20539;-83
2023/01/17 13:56:21;;;;;;;1999.90;999.90;;;6.00;99.90;;;;;;5003762;28;20069;-83